Time;durP1;ratioP1;P1;durP2;ratioP2;P2;SDS_P1;SDS_P2;PMS_P1;PMS_P2;Temp;Humidity;BMP_temperature;BMP_pressure;BME280_temperature;BME280_humidity;BME280_pressure;Samples;Min_cycle;Max_cycle;Signal;HPM_P1;HPM_P2
2021/05/15 00:00:52;;;;;;;19.70;4.45;;;39.80;13.50;;;;;;5036768;28;20082;-63
2021/05/15 00:03:18;;;;;;;31.50;4.53;;;39.80;13.80;;;;;;5036432;28;20164;-65
2021/05/15 00:05:45;;;;;;;22.67;4.28;;;39.80;13.80;;;;;;5035792;28;20548;-64
2021/05/15 00:08:13;;;;;;;21.98;4.35;;;39.60;14.00;;;;;;5038500;28;20086;-66
2021/05/15 00:10:40;;;;;;;23.88;4.15;;;39.40;14.20;;;;;;5039561;28;20070;-63
2021/05/15 00:13:06;;;;;;;20.52;3.80;;;39.30;14.30;;;;;;5039644;28;20172;-63
2021/05/15 00:15:33;;;;;;;29.80;4.13;;;39.10;13.90;;;;;;5038348;28;20074;-65
2021/05/15 00:18:00;;;;;;;18.98;3.97;;;39.00;14.20;;;;;;5038679;28;20542;-62
2021/05/15 00:20:26;;;;;;;25.10;4.70;;;39.10;14.70;;;;;;5038671;28;20078;-65
2021/05/15 00:22:53;;;;;;;21.85;4.07;;;39.20;14.10;;;;;;5038100;28;20532;-64
2021/05/15 00:25:20;;;;;;;20.23;4.07;;;39.00;14.10;;;;;;5040572;28;20073;-64
2021/05/15 00:27:46;;;;;;;29.83;4.55;;;39.00;14.40;;;;;;5038860;28;20130;-65
2021/05/15 00:30:15;;;;;;;26.55;4.60;;;39.00;14.10;;;;;;5037647;28;20504;-65
2021/05/15 00:32:42;;;;;;;25.02;4.30;;;39.00;14.50;;;;;;5039702;28;20091;-63
2021/05/15 00:35:10;;;;;;;17.27;3.88;;;38.80;14.00;;;;;;5037638;28;20138;-63
2021/05/15 00:37:38;;;;;;;22.15;3.88;;;38.70;14.10;;;;;;5037975;28;20073;-63
2021/05/15 00:40:09;;;;;;;26.70;4.05;;;38.70;14.40;;;;;;5038214;28;20531;-64
2021/05/15 00:42:36;;;;;;;22.77;4.38;;;38.70;14.70;;;;;;5034620;28;20070;-62
2021/05/15 00:45:05;;;;;;;24.85;4.35;;;38.60;14.70;;;;;;5039723;28;20084;-63
2021/05/15 00:47:32;;;;;;;20.65;3.60;;;38.60;14.40;;;;;;5036631;28;20143;-63
2021/05/15 00:49:59;;;;;;;17.70;3.95;;;38.60;13.90;;;;;;5039351;28;20074;-61
2021/05/15 00:52:32;;;;;;;19.15;4.30;;;38.50;14.50;;;;;;5034278;28;20229;-63
2021/05/15 00:54:58;;;;;;;26.45;4.38;;;38.50;14.10;;;;;;5037214;28;20579;-63
2021/05/15 00:57:25;;;;;;;22.00;3.95;;;38.30;14.30;;;;;;5037702;28;20078;-61
2021/05/15 00:59:51;;;;;;;22.33;4.45;;;38.30;14.50;;;;;;5038215;28;20772;-62
2021/05/15 01:02:18;;;;;;;23.55;3.80;;;38.20;14.50;;;;;;5035340;28;20082;-61
2021/05/15 01:04:44;;;;;;;20.92;4.50;;;38.10;14.40;;;;;;5033832;28;20080;-61
2021/05/15 01:07:11;;;;;;;13.32;4.10;;;38.10;14.80;;;;;;5039214;28;20094;-60
2021/05/15 01:09:38;;;;;;;22.85;4.20;;;38.10;14.50;;;;;;5039412;28;20066;-61
2021/05/15 01:12:06;;;;;;;28.70;5.22;;;38.10;14.50;;;;;;5040239;28;20073;-61
2021/05/15 01:14:38;;;;;;;29.25;4.80;;;38.00;14.40;;;;;;5036128;28;20121;-61
2021/05/15 01:17:07;;;;;;;27.33;3.75;;;37.90;14.60;;;;;;5038073;28;20069;-61
2021/05/15 01:19:33;;;;;;;20.13;4.10;;;37.80;14.30;;;;;;5034860;28;20106;-61
2021/05/15 01:22:03;;;;;;;26.02;4.70;;;37.80;14.40;;;;;;5034054;28;20085;-62
2021/05/15 01:24:30;;;;;;;45.00;5.60;;;37.70;14.50;;;;;;5032346;28;20185;-60
2021/05/15 01:26:57;;;;;;;30.52;4.97;;;37.60;14.70;;;;;;5033657;28;20106;-62
2021/05/15 01:29:23;;;;;;;28.85;4.75;;;37.50;15.30;;;;;;5032434;28;20527;-61
2021/05/15 01:31:50;;;;;;;25.95;5.03;;;37.40;16.20;;;;;;5035715;28;20443;-61
2021/05/15 01:34:16;;;;;;;32.13;4.28;;;37.40;16.00;;;;;;5033905;28;20423;-62
2021/05/15 01:36:44;;;;;;;16.73;4.28;;;37.40;15.80;;;;;;5038099;28;20077;-61
2021/05/15 01:39:14;;;;;;;21.92;4.05;;;37.30;15.80;;;;;;5033838;28;20102;-62
2021/05/15 01:41:41;;;;;;;21.60;4.25;;;37.40;15.40;;;;;;5037718;28;20073;-63
2021/05/15 01:44:08;;;;;;;29.05;4.18;;;37.30;16.10;;;;;;5036719;28;20101;-61
2021/05/15 01:46:38;;;;;;;29.35;4.30;;;37.20;16.50;;;;;;5035973;28;20109;-63
2021/05/15 01:49:05;;;;;;;30.10;4.55;;;37.10;16.10;;;;;;5034985;28;20066;-58
2021/05/15 01:51:33;;;;;;;23.60;4.53;;;37.00;15.40;;;;;;5033155;28;20161;-62
2021/05/15 01:53:59;;;;;;;18.15;4.03;;;37.00;15.20;;;;;;5034619;28;20105;-62
2021/05/15 01:56:30;;;;;;;19.58;4.28;;;37.00;14.80;;;;;;5038184;28;20460;-63
2021/05/15 01:58:57;;;;;;;12.02;3.50;;;36.90;14.00;;;;;;5034355;28;20077;-61
2021/05/15 02:01:26;;;;;;;20.15;4.00;;;36.80;14.10;;;;;;5035624;28;20081;-61
2021/05/15 02:03:54;;;;;;;25.67;3.33;;;36.50;14.30;;;;;;5041162;28;20074;-63
2021/05/15 02:06:20;;;;;;;12.68;3.28;;;36.40;15.10;;;;;;5040321;28;20090;-64
2021/05/15 02:08:48;;;;;;;25.70;4.43;;;36.20;14.70;;;;;;5040236;28;20085;-62
2021/05/15 02:11:16;;;;;;;17.02;4.38;;;36.00;14.90;;;;;;5044279;28;20559;-62
2021/05/15 02:13:52;;;;;;;21.92;4.80;;;35.80;15.00;;;;;;5034601;28;20415;-61
2021/05/15 02:16:19;;;;;;;17.80;5.03;;;35.70;15.20;;;;;;5054431;28;20095;-60
2021/05/15 02:18:47;;;;;;;21.23;4.63;;;35.60;15.40;;;;;;5037689;28;20070;-62
2021/05/15 02:21:14;;;;;;;25.70;5.00;;;35.50;15.90;;;;;;5038448;28;20520;-64
2021/05/15 02:23:40;;;;;;;26.27;4.55;;;35.40;15.90;;;;;;5036521;28;20585;-61
2021/05/15 02:26:07;;;;;;;18.33;4.45;;;35.20;15.70;;;;;;5037535;28;20165;-64
2021/05/15 02:28:33;;;;;;;20.85;3.45;;;35.10;15.70;;;;;;5041429;28;20542;-61
2021/05/15 02:31:00;;;;;;;16.58;3.63;;;35.10;16.70;;;;;;5043088;28;20509;-64
2021/05/15 02:33:27;;;;;;;15.45;3.35;;;35.00;17.10;;;;;;5043458;28;20086;-62
2021/05/15 02:35:53;;;;;;;18.45;3.10;;;34.90;17.30;;;;;;5041673;28;20144;-61
2021/05/15 02:38:21;;;;;;;17.90;3.90;;;34.70;17.60;;;;;;5041145;28;20081;-62
2021/05/15 02:40:47;;;;;;;20.58;5.85;;;34.60;17.90;;;;;;5044446;28;20084;-62
2021/05/15 02:43:16;;;;;;;21.05;5.72;;;34.40;18.10;;;;;;5040487;28;20105;-63
2021/05/15 02:45:43;;;;;;;22.63;5.13;;;34.30;18.10;;;;;;5044122;28;20073;-64
2021/05/15 02:48:10;;;;;;;18.75;3.83;;;34.20;18.00;;;;;;5043754;28;20567;-62
2021/05/15 02:50:36;;;;;;;17.00;4.93;;;34.10;18.00;;;;;;5039238;28;20069;-64
2021/05/15 02:53:03;;;;;;;30.48;4.97;;;33.90;17.80;;;;;;5042453;28;20137;-61
2021/05/15 02:55:29;;;;;;;22.15;4.97;;;33.80;18.00;;;;;;5043454;28;20524;-63
2021/05/15 02:57:56;;;;;;;19.80;4.63;;;33.70;17.90;;;;;;5039975;28;20078;-61
2021/05/15 03:00:27;;;;;;;26.67;5.22;;;33.60;18.00;;;;;;5043345;28;20173;-65
2021/05/15 03:02:56;;;;;;;25.00;5.15;;;33.50;18.50;;;;;;5039921;28;20082;-62
2021/05/15 03:05:25;;;;;;;42.40;7.10;;;33.40;18.70;;;;;;5042427;28;20540;-64
2021/05/15 03:07:52;;;;;;;25.52;6.15;;;33.30;18.70;;;;;;5043476;28;20112;-62
2021/05/15 03:10:23;;;;;;;29.63;5.68;;;33.20;19.00;;;;;;5043044;28;20066;-64
2021/05/15 03:12:53;;;;;;;23.73;5.30;;;33.10;19.40;;;;;;5040003;28;20139;-64
2021/05/15 03:15:21;;;;;;;25.70;6.03;;;33.00;19.00;;;;;;5050484;28;20521;-62
2021/05/15 03:17:48;;;;;;;20.17;5.55;;;32.90;19.40;;;;;;5039729;28;20148;-62
2021/05/15 03:20:16;;;;;;;27.52;5.05;;;32.80;19.60;;;;;;5039756;28;20074;-63
2021/05/15 03:22:44;;;;;;;23.98;6.35;;;32.80;19.70;;;;;;5042884;28;20076;-65
2021/05/15 03:25:10;;;;;;;19.85;4.97;;;32.70;19.80;;;;;;5039602;28;20440;-65
2021/05/15 03:27:37;;;;;;;26.02;4.93;;;32.60;19.80;;;;;;5041465;28;20184;-64
2021/05/15 03:30:05;;;;;;;28.88;5.47;;;32.50;20.30;;;;;;5039515;28;20119;-64
2021/05/15 03:32:32;;;;;;;21.80;4.90;;;32.50;19.90;;;;;;5040226;28;20088;-61
2021/05/15 03:34:58;;;;;;;27.35;5.55;;;32.30;19.80;;;;;;5039449;28;20132;-64
2021/05/15 03:37:25;;;;;;;31.73;4.95;;;32.30;19.90;;;;;;5039314;28;20074;-64
2021/05/15 03:39:51;;;;;;;24.67;5.70;;;32.20;19.80;;;;;;5038194;28;20489;-62
2021/05/15 03:42:18;;;;;;;26.00;4.88;;;32.10;20.00;;;;;;5042301;28;20070;-60
2021/05/15 03:44:44;;;;;;;27.30;4.75;;;32.00;19.90;;;;;;5040572;28;20081;-62
2021/05/15 03:47:11;;;;;;;18.48;4.30;;;32.10;20.00;;;;;;5037388;28;20622;-63
2021/05/15 03:49:37;;;;;;;27.17;5.90;;;32.00;20.10;;;;;;5040417;28;20485;-63
2021/05/15 03:52:04;;;;;;;22.48;5.40;;;31.90;20.20;;;;;;5040813;28;20121;-63
2021/05/15 03:54:31;;;;;;;31.33;4.65;;;31.80;20.10;;;;;;5037264;28;20078;-63
2021/05/15 03:56:57;;;;;;;16.67;3.50;;;31.80;19.50;;;;;;5041473;28;20085;-62
2021/05/15 03:59:24;;;;;;;19.75;4.82;;;31.70;19.50;;;;;;5037438;28;20085;-63
2021/05/15 04:01:50;;;;;;;25.65;5.57;;;31.70;19.80;;;;;;5036337;28;20078;-64
2021/05/15 04:04:17;;;;;;;22.50;5.25;;;31.60;19.90;;;;;;5038792;28;20458;-65
2021/05/15 04:06:44;;;;;;;19.73;4.90;;;31.50;20.00;;;;;;5037030;28;20090;-65
2021/05/15 04:09:10;;;;;;;29.52;5.00;;;31.40;19.80;;;;;;5040471;28;20081;-65
2021/05/15 04:11:37;;;;;;;25.10;4.65;;;31.40;19.40;;;;;;5038501;28;20156;-62
2021/05/15 04:19:14;;;;;;;34.85;5.32;;;31.20;20.30;;;;;;5043292;28;20066;-65
2021/05/15 04:21:40;;;;;;;21.75;5.38;;;31.10;19.80;;;;;;5036863;28;20078;-63
2021/05/15 04:24:07;;;;;;;28.85;6.93;;;31.00;19.50;;;;;;5035168;28;20097;-65
2021/05/15 04:26:34;;;;;;;34.13;7.18;;;30.90;19.50;;;;;;5037308;28;20086;-62
2021/05/15 04:29:01;;;;;;;24.38;6.03;;;30.90;19.40;;;;;;5038576;28;20093;-65
2021/05/15 04:31:29;;;;;;;23.67;6.53;;;30.80;19.40;;;;;;5039143;28;20074;-63
2021/05/15 04:33:55;;;;;;;24.80;6.22;;;30.70;19.70;;;;;;5040678;28;20159;-64
2021/05/15 04:36:22;;;;;;;23.50;5.13;;;30.70;19.10;;;;;;5041266;28;20085;-64
2021/05/15 04:38:51;;;;;;;25.23;4.50;;;30.70;19.00;;;;;;5042188;28;20519;-63
2021/05/15 04:41:19;;;;;;;22.75;4.25;;;30.60;18.90;;;;;;5039145;28;20085;-65
2021/05/15 04:43:46;;;;;;;24.85;4.85;;;30.50;19.30;;;;;;5039213;28;20070;-62
2021/05/15 04:46:13;;;;;;;24.63;4.63;;;30.40;19.40;;;;;;5040864;28;20074;-62
2021/05/15 04:48:43;;;;;;;23.48;4.35;;;30.40;19.70;;;;;;5039203;28;20539;-64
2021/05/15 04:51:11;;;;;;;29.25;4.00;;;30.30;19.60;;;;;;5039653;28;20078;-64
2021/05/15 04:53:37;;;;;;;24.80;4.15;;;30.20;20.00;;;;;;5035218;28;20205;-64
2021/05/15 04:56:05;;;;;;;16.42;3.67;;;30.20;19.90;;;;;;5040571;28;20532;-61
2021/05/15 04:58:32;;;;;;;33.75;4.65;;;30.00;20.20;;;;;;5034441;28;20159;-64
2021/05/15 05:00:58;;;;;;;22.25;4.38;;;30.00;20.10;;;;;;5035354;28;20165;-63
2021/05/15 05:03:25;;;;;;;32.65;5.05;;;29.90;20.10;;;;;;5039664;28;20077;-63
2021/05/15 05:05:51;;;;;;;15.98;4.20;;;29.80;20.70;;;;;;5038898;28;20160;-62
2021/05/15 05:08:18;;;;;;;24.75;4.63;;;29.80;20.60;;;;;;5039764;28;20182;-64
2021/05/15 05:10:44;;;;;;;41.08;4.70;;;29.80;20.80;;;;;;5040043;28;20070;-65
2021/05/15 05:13:11;;;;;;;25.30;4.13;;;29.70;21.20;;;;;;5038393;28;20132;-64
2021/05/15 05:15:37;;;;;;;30.80;3.97;;;29.60;21.90;;;;;;5038893;28;20074;-65
2021/05/15 05:18:04;;;;;;;26.20;4.20;;;29.60;22.20;;;;;;5038005;28;20096;-65
2021/05/15 05:20:30;;;;;;;23.75;5.03;;;29.50;22.10;;;;;;5037714;28;20077;-64
2021/05/15 05:22:57;;;;;;;31.17;4.38;;;29.40;22.20;;;;;;5039960;28;20976;-65
2021/05/15 05:25:23;;;;;;;24.75;4.50;;;29.40;22.00;;;;;;5035809;28;20089;-64
2021/05/15 05:27:50;;;;;;;26.15;4.30;;;29.20;22.00;;;;;;5037974;28;20176;-63
2021/05/15 05:30:19;;;;;;;31.30;4.10;;;29.10;22.40;;;;;;5041156;28;20081;-65
2021/05/15 05:32:47;;;;;;;24.55;3.95;;;29.10;22.60;;;;;;5039355;28;20078;-64
2021/05/15 05:35:14;;;;;;;20.77;3.33;;;29.00;22.90;;;;;;5037908;28;20164;-63
2021/05/15 05:37:42;;;;;;;23.40;4.00;;;28.90;22.70;;;;;;5039813;28;20109;-63
2021/05/15 05:40:10;;;;;;;26.48;4.35;;;28.90;23.00;;;;;;5037193;28;20066;-62
2021/05/15 05:42:38;;;;;;;22.70;4.07;;;28.70;23.00;;;;;;5038908;28;20078;-65
2021/05/15 05:45:11;;;;;;;23.23;4.18;;;28.70;22.90;;;;;;5041425;28;20654;-61
2021/05/15 05:47:37;;;;;;;12.52;3.15;;;28.60;22.80;;;;;;5036681;28;20589;-65
2021/05/15 05:50:06;;;;;;;15.60;3.60;;;28.50;23.00;;;;;;5035563;28;20078;-62
2021/05/15 05:52:33;;;;;;;14.85;3.75;;;28.40;23.10;;;;;;5037781;28;20667;-64
2021/05/15 05:54:59;;;;;;;19.85;3.65;;;28.40;23.30;;;;;;5038734;28;20156;-64
2021/05/15 05:57:26;;;;;;;24.45;3.35;;;28.30;23.50;;;;;;5039003;28;20139;-64
2021/05/15 05:59:52;;;;;;;13.80;3.50;;;28.20;23.40;;;;;;5038771;28;20073;-66
2021/05/15 06:02:19;;;;;;;14.80;2.75;;;28.10;23.00;;;;;;5042257;28;20081;-63
2021/05/15 06:04:45;;;;;;;12.35;2.95;;;28.10;23.10;;;;;;5058728;28;20065;-66
2021/05/15 06:07:13;;;;;;;21.60;3.35;;;28.00;23.00;;;;;;5038698;28;20180;-65
2021/05/15 06:09:41;;;;;;;14.98;3.00;;;28.00;22.70;;;;;;5038445;28;20426;-61
2021/05/15 06:12:10;;;;;;;10.38;3.00;;;28.00;22.90;;;;;;5040901;28;20074;-62
2021/05/15 06:14:38;;;;;;;17.85;3.20;;;27.90;22.90;;;;;;5040112;28;20106;-59
2021/05/15 06:17:05;;;;;;;23.77;3.22;;;27.80;22.90;;;;;;5039806;28;20864;-60
2021/05/15 06:19:31;;;;;;;23.20;3.10;;;27.70;23.10;;;;;;5042122;28;20473;-61
2021/05/15 06:21:58;;;;;;;16.38;3.28;;;27.70;23.30;;;;;;5041507;28;20078;-60
2021/05/15 06:24:26;;;;;;;21.45;3.65;;;27.70;23.20;;;;;;5057039;28;20080;-63
2021/05/15 06:26:53;;;;;;;29.02;3.40;;;27.60;23.40;;;;;;5040681;28;20093;-58
2021/05/15 06:29:20;;;;;;;24.15;3.53;;;27.50;23.50;;;;;;5038776;28;20073;-62
2021/05/15 06:31:46;;;;;;;20.85;3.90;;;27.60;23.40;;;;;;5041827;28;20070;-63
2021/05/15 06:34:13;;;;;;;21.60;3.33;;;27.50;23.40;;;;;;5039623;28;20438;-59
2021/05/15 06:36:39;;;;;;;15.05;3.03;;;27.40;23.30;;;;;;5038140;28;20528;-60
2021/05/15 06:39:06;;;;;;;18.60;3.53;;;27.40;23.40;;;;;;5038973;28;20082;-59
2021/05/15 06:41:32;;;;;;;14.93;3.35;;;27.40;23.50;;;;;;5035138;28;20161;-60
2021/05/15 06:43:59;;;;;;;17.88;3.38;;;27.40;23.20;;;;;;5037150;28;20574;-58
2021/05/15 06:46:25;;;;;;;25.17;3.10;;;27.40;23.00;;;;;;5040572;28;20431;-61
2021/05/15 06:48:52;;;;;;;11.57;3.00;;;27.30;22.90;;;;;;5038206;28;20066;-62
2021/05/15 06:51:18;;;;;;;27.30;3.08;;;27.30;23.00;;;;;;5041761;28;20087;-57
2021/05/15 06:53:45;;;;;;;19.48;3.10;;;27.30;22.80;;;;;;4980800;28;1750315;-63
2021/05/15 06:56:12;;;;;;;12.63;3.35;;;27.30;22.80;;;;;;5039135;28;20128;-62
2021/05/15 06:58:41;;;;;;;15.70;3.33;;;27.30;22.70;;;;;;5037846;28;20073;-62
2021/05/15 07:01:08;;;;;;;18.85;3.05;;;27.30;22.60;;;;;;5041669;28;20085;-60
2021/05/15 07:03:36;;;;;;;13.80;2.85;;;27.30;22.60;;;;;;5038829;28;20077;-61
2021/05/15 07:06:06;;;;;;;17.10;2.97;;;27.30;21.70;;;;;;5037270;28;20084;-61
2021/05/15 07:08:32;;;;;;;10.27;2.95;;;27.30;21.90;;;;;;5040607;28;20073;-61
2021/05/15 07:10:59;;;;;;;9.80;2.60;;;27.30;21.80;;;;;;5041100;28;20078;-62
2021/05/15 07:13:25;;;;;;;15.60;3.05;;;27.30;21.10;;;;;;5038968;28;20083;-63
2021/05/15 07:15:52;;;;;;;16.27;2.67;;;27.30;21.20;;;;;;5039798;28;20112;-61
2021/05/15 07:18:20;;;;;;;16.48;2.60;;;27.30;20.60;;;;;;5036848;28;20100;-61
2021/05/15 07:20:47;;;;;;;14.88;2.72;;;26.70;21.50;;;;;;5035194;28;20081;-62
2021/05/15 07:23:14;;;;;;;14.75;3.17;;;27.30;20.70;;;;;;5042752;28;20120;-60
2021/05/15 07:25:40;;;;;;;13.73;2.85;;;27.30;21.00;;;;;;5036161;28;20069;-63
2021/05/15 07:28:07;;;;;;;22.13;3.42;;;27.30;21.20;;;;;;5039046;28;20101;-60
2021/05/15 07:30:33;;;;;;;18.48;2.90;;;27.30;21.70;;;;;;5039681;28;20175;-61
2021/05/15 07:33:01;;;;;;;11.35;3.05;;;27.20;21.60;;;;;;5041174;28;20420;-60
2021/05/15 07:35:28;;;;;;;23.75;3.33;;;27.10;21.30;;;;;;5041014;28;20070;-61
2021/05/15 07:37:54;;;;;;;13.52;2.92;;;27.00;21.70;;;;;;5034335;28;20075;-57
2021/05/15 07:40:21;;;;;;;16.60;3.50;;;27.00;21.10;;;;;;5042690;28;20078;-64
2021/05/15 07:42:48;;;;;;;24.02;3.60;;;26.90;21.50;;;;;;5040110;28;20078;-62
2021/05/15 07:45:15;;;;;;;20.65;4.20;;;26.90;22.60;;;;;;5041607;28;20069;-63
2021/05/15 07:47:43;;;;;;;14.13;3.78;;;26.60;22.50;;;;;;5040275;28;20561;-60
2021/05/15 07:50:10;;;;;;;15.63;3.40;;;26.60;22.90;;;;;;5038923;28;20103;-59
2021/05/15 07:52:37;;;;;;;21.08;3.80;;;26.60;23.50;;;;;;5038966;28;20113;-63
2021/05/15 07:55:06;;;;;;;13.65;3.72;;;26.50;23.40;;;;;;5037955;28;20116;-63
2021/05/15 07:57:33;;;;;;;22.15;4.18;;;26.50;24.20;;;;;;5036505;28;20085;-63
2021/05/15 08:00:03;;;;;;;20.80;4.40;;;26.50;24.70;;;;;;5038807;28;20074;-59
2021/05/15 08:02:32;;;;;;;20.98;4.47;;;26.50;25.00;;;;;;5037623;28;20073;-57
2021/05/15 08:04:58;;;;;;;18.33;3.65;;;26.40;24.90;;;;;;5037478;28;20073;-61
2021/05/15 08:07:25;;;;;;;18.98;3.55;;;26.30;24.40;;;;;;5036369;28;20113;-61
2021/05/15 08:09:51;;;;;;;24.13;3.67;;;26.30;25.10;;;;;;5039219;28;20086;-56
2021/05/15 08:12:18;;;;;;;13.38;3.30;;;26.20;25.10;;;;;;5039176;28;20074;-64
2021/05/15 08:14:44;;;;;;;22.88;3.40;;;26.20;25.10;;;;;;5042396;28;20081;-61
2021/05/15 08:17:11;;;;;;;23.15;4.40;;;26.10;25.70;;;;;;5038605;28;20424;-63
2021/05/15 08:19:37;;;;;;;14.82;2.83;;;26.00;25.20;;;;;;5038836;28;20455;-63
2021/05/15 08:22:04;;;;;;;25.52;3.78;;;25.90;26.10;;;;;;5039269;28;20093;-61
2021/05/15 08:24:31;;;;;;;22.05;3.65;;;25.90;25.90;;;;;;5035264;28;20077;-63
2021/05/15 08:26:57;;;;;;;17.85;3.13;;;25.80;26.10;;;;;;5034342;28;20152;-63
2021/05/15 08:29:24;;;;;;;17.65;3.10;;;25.70;26.70;;;;;;5037303;28;20607;-62
2021/05/15 08:31:51;;;;;;;19.30;4.07;;;25.80;26.60;;;;;;5036808;28;20168;-64
2021/05/15 08:34:18;;;;;;;17.13;4.47;;;25.70;22.50;;;;;;5037046;28;20082;-63
2021/05/15 08:36:44;;;;;;;17.05;5.30;;;25.70;22.00;;;;;;5035972;28;20084;-62
2021/05/15 08:39:11;;;;;;;23.40;4.68;;;25.70;21.30;;;;;;5040273;28;20089;-61
2021/05/15 08:41:37;;;;;;;28.80;4.80;;;25.60;20.70;;;;;;5035806;28;20821;-63
2021/05/15 08:44:06;;;;;;;15.25;4.15;;;25.60;21.60;;;;;;5038133;28;20070;-61
2021/05/15 08:46:33;;;;;;;23.15;3.63;;;25.60;21.40;;;;;;5039824;28;20088;-61
2021/05/15 08:49:06;;;;;;;16.63;4.03;;;25.60;20.70;;;;;;5036478;28;20540;-61
2021/05/15 08:51:33;;;;;;;21.90;3.97;;;25.60;20.60;;;;;;5032122;28;20073;-63
2021/05/15 08:54:00;;;;;;;15.50;4.40;;;25.50;20.80;;;;;;5033936;28;20109;-62
2021/05/15 08:56:28;;;;;;;15.90;4.53;;;25.50;21.10;;;;;;5038326;28;20078;-62
2021/05/15 08:58:55;;;;;;;16.65;4.07;;;25.50;21.00;;;;;;5037174;28;20140;-63
2021/05/15 09:01:23;;;;;;;18.35;4.13;;;25.50;21.10;;;;;;5037588;28;20150;-63
2021/05/15 09:03:49;;;;;;;30.50;4.13;;;25.40;21.40;;;;;;5039470;28;20130;-62
2021/05/15 09:06:16;;;;;;;9.85;2.97;;;25.40;21.30;;;;;;5038847;28;20574;-63
2021/05/15 09:08:48;;;;;;;17.65;3.60;;;25.30;21.40;;;;;;5036495;28;20567;-61
2021/05/15 09:11:15;;;;;;;16.55;3.13;;;25.30;21.90;;;;;;5036424;28;20523;-61
2021/05/15 09:13:51;;;;;;;14.25;2.72;;;25.30;21.70;;;;;;5039617;28;20082;-61
2021/05/15 09:16:18;;;;;;;9.15;2.35;;;25.30;21.50;;;;;;5039070;28;20547;-58
2021/05/15 09:18:44;;;;;;;14.68;3.05;;;25.30;21.60;;;;;;5041271;28;20081;-61
2021/05/15 09:21:18;;;;;;;16.27;2.58;;;25.20;21.60;;;;;;5038299;28;20119;-62
2021/05/15 09:23:46;;;;;;;15.18;2.90;;;25.20;22.00;;;;;;5036923;28;20157;-61
2021/05/15 09:26:18;;;;;;;16.60;2.85;;;25.10;21.90;;;;;;5036257;28;20567;-63
2021/05/15 09:28:55;;;;;;;16.35;3.00;;;25.10;21.60;;;;;;5038449;28;20085;-62
2021/05/15 09:31:27;;;;;;;17.75;3.80;;;25.10;22.00;;;;;;5038922;28;20153;-62
2021/05/15 09:34:01;;;;;;;20.25;3.85;;;25.00;21.60;;;;;;5038221;28;20135;-62
2021/05/15 09:36:32;;;;;;;18.17;3.90;;;25.00;22.30;;;;;;5040162;28;20077;-62
2021/05/15 09:39:22;;;;;;;15.60;3.58;;;25.00;21.70;;;;;;5036561;28;20086;-61
2021/05/15 09:41:51;;;;;;;16.95;3.10;;;25.00;21.90;;;;;;5037101;28;20486;-62
2021/05/15 09:44:20;;;;;;;16.85;3.35;;;25.00;22.60;;;;;;5034849;28;20078;-60
2021/05/15 09:46:47;;;;;;;12.98;4.07;;;25.00;22.20;;;;;;5039514;28;20097;-62
2021/05/15 09:49:16;;;;;;;14.43;3.47;;;24.80;21.90;;;;;;5040677;28;20144;-63
2021/05/15 09:52:02;;;;;;;15.20;3.42;;;24.90;22.60;;;;;;5037306;28;20070;-62
2021/05/15 09:54:31;;;;;;;17.88;4.18;;;24.90;22.30;;;;;;5036738;28;20085;-58
2021/05/15 09:57:10;;;;;;;16.13;3.72;;;24.80;21.60;;;;;;5041235;28;20074;-62
2021/05/15 09:59:44;;;;;;;18.77;3.90;;;24.80;21.90;;;;;;5036774;28;20176;-62
2021/05/15 10:02:14;;;;;;;20.17;3.90;;;24.90;47.40;;;;;;5039533;28;20165;-62
2021/05/15 10:04:46;;;;;;;19.73;3.80;;;24.10;21.10;;;;;;5038279;28;20078;-62
2021/05/15 10:07:33;;;;;;;18.60;4.20;;;24.70;21.30;;;;;;5039082;28;20143;-61
2021/05/15 10:10:06;;;;;;;23.83;4.30;;;24.70;21.60;;;;;;5038155;28;20183;-64
2021/05/15 10:12:36;;;;;;;21.10;3.80;;;24.70;21.30;;;;;;5035863;28;20092;-63
2021/05/15 10:15:05;;;;;;;15.35;3.95;;;24.70;21.60;;;;;;5037183;28;20070;-63
2021/05/15 10:17:34;;;;;;;16.10;3.88;;;24.50;21.40;;;;;;5034558;28;20097;-63
2021/05/15 10:20:08;;;;;;;22.48;4.68;;;24.50;21.80;;;;;;5037643;28;20074;-63
2021/05/15 10:22:40;;;;;;;16.45;4.28;;;24.30;22.10;;;;;;5039699;28;20453;-63
2021/05/15 10:25:16;;;;;;;28.30;4.40;;;24.40;23.10;;;;;;5037224;28;20084;-64
2021/05/15 10:27:43;;;;;;;15.45;4.53;;;24.40;22.70;;;;;;5037838;28;20112;-64
2021/05/15 10:30:23;;;;;;;20.63;5.70;;;24.40;23.70;;;;;;5033125;28;20140;-63
2021/05/15 10:32:58;;;;;;;21.42;4.78;;;24.30;23.50;;;;;;5037752;28;20487;-64
2021/05/15 10:35:33;;;;;;;19.60;5.28;;;24.30;23.20;;;;;;5036784;28;20585;-64
2021/05/15 10:38:13;;;;;;;27.08;5.95;;;24.20;24.60;;;;;;5053090;28;20077;-64
2021/05/15 10:40:48;;;;;;;16.10;4.65;;;24.10;24.00;;;;;;5035436;28;20557;-62
2021/05/15 10:43:33;;;;;;;25.92;5.38;;;24.10;24.30;;;;;;5037424;28;20073;-63
2021/05/15 10:46:12;;;;;;;21.88;5.38;;;24.00;25.20;;;;;;5036531;28;20090;-62
2021/05/15 10:48:39;;;;;;;23.95;6.20;;;24.00;24.40;;;;;;5042057;28;20097;-64
2021/05/15 10:51:06;;;;;;;24.15;6.60;;;24.00;25.80;;;;;;5043592;28;20082;-64
2021/05/15 10:53:33;;;;;;;34.83;7.75;;;23.80;25.30;;;;;;5040092;28;20207;-63
2021/05/15 10:56:14;;;;;;;35.97;9.70;;;23.80;26.40;;;;;;5041871;28;20070;-63
2021/05/15 10:58:44;;;;;;;48.03;9.77;;;23.80;27.20;;;;;;5041706;28;20261;-62
2021/05/15 11:01:13;;;;;;;38.83;9.25;;;23.80;27.60;;;;;;5041650;28;20553;-64
2021/05/15 11:03:40;;;;;;;43.10;10.57;;;23.70;28.50;;;;;;5037283;28;20160;-61
2021/05/15 11:06:14;;;;;;;41.53;9.10;;;23.80;29.20;;;;;;5041913;28;20204;-63
2021/05/15 11:08:41;;;;;;;42.45;10.38;;;23.70;29.10;;;;;;5039514;28;20089;-61
2021/05/15 11:11:12;;;;;;;41.83;10.02;;;23.60;30.80;;;;;;5040979;28;20081;-61
2021/05/15 11:13:49;;;;;;;38.10;9.48;;;23.50;32.80;;;;;;5043271;28;20077;-62
2021/05/15 11:16:30;;;;;;;41.38;10.93;;;23.60;34.30;;;;;;5042905;28;20084;-61
2021/05/15 11:19:06;;;;;;;43.40;9.80;;;23.60;34.70;;;;;;5036544;28;20073;-61
2021/05/15 11:21:35;;;;;;;37.90;8.70;;;23.60;34.80;;;;;;5039506;28;20435;-61
2021/05/15 11:24:03;;;;;;;42.63;7.68;;;23.50;34.70;;;;;;5040881;28;20079;-61
2021/05/15 11:26:51;;;;;;;37.58;7.43;;;23.50;34.60;;;;;;5039651;28;20086;-63
2021/05/15 11:29:31;;;;;;;28.25;6.55;;;23.50;34.60;;;;;;5038738;28;20113;-62
2021/05/15 11:32:08;;;;;;;39.35;7.45;;;23.40;33.80;;;;;;5046461;28;21154;-62
2021/05/15 11:34:35;;;;;;;38.33;7.07;;;23.40;33.50;;;;;;5045158;28;20430;-61
2021/05/15 11:37:02;;;;;;;32.83;7.65;;;23.40;33.70;;;;;;5044239;28;20583;-64
2021/05/15 11:39:28;;;;;;;40.60;8.32;;;23.40;33.70;;;;;;5038622;28;20104;-62
2021/05/15 11:42:11;;;;;;;47.75;9.38;;;23.40;33.80;;;;;;5038010;28;20089;-63
2021/05/15 11:44:40;;;;;;;45.75;8.93;;;23.30;34.00;;;;;;5042546;28;20539;-62
2021/05/15 11:47:09;;;;;;;45.20;9.88;;;23.30;33.90;;;;;;5035810;28;20101;-62
2021/05/15 11:49:39;;;;;;;38.65;10.82;;;23.20;33.60;;;;;;5044051;28;20131;-62
2021/05/15 11:52:10;;;;;;;41.60;10.18;;;23.20;33.20;;;;;;5036333;28;20117;-62
2021/05/15 11:54:39;;;;;;;48.60;8.90;;;23.20;32.90;;;;;;5038031;28;20142;-61
2021/05/15 11:57:05;;;;;;;41.42;8.85;;;23.20;32.80;;;;;;5036948;28;20082;-61
2021/05/15 11:59:32;;;;;;;38.75;8.40;;;23.10;32.50;;;;;;5037977;28;20156;-62
2021/05/15 12:01:59;;;;;;;36.28;7.90;;;23.10;32.40;;;;;;5038763;28;20074;-63
2021/05/15 12:04:31;;;;;;;35.13;8.00;;;23.10;32.40;;;;;;5036384;28;20078;-64
2021/05/15 12:06:59;;;;;;;38.65;7.68;;;23.10;32.30;;;;;;5039155;28;20101;-63
2021/05/15 12:09:28;;;;;;;29.67;6.63;;;23.00;32.10;;;;;;5037801;28;20528;-63
2021/05/15 12:12:02;;;;;;;37.55;8.82;;;22.90;31.60;;;;;;5039512;28;20153;-64
2021/05/15 12:14:30;;;;;;;38.03;6.78;;;22.90;31.50;;;;;;5041104;28;20074;-65
2021/05/15 12:17:04;;;;;;;24.15;6.18;;;22.80;31.40;;;;;;5040046;28;20074;-64
2021/05/15 12:19:30;;;;;;;31.30;6.82;;;22.80;31.60;;;;;;5040124;28;20069;-61
2021/05/15 12:22:03;;;;;;;28.17;6.85;;;22.80;31.60;;;;;;5040026;28;20544;-64
2021/05/15 12:24:33;;;;;;;31.02;6.50;;;22.80;31.70;;;;;;5039034;28;20070;-64
2021/05/15 12:27:11;;;;;;;32.30;6.68;;;22.70;32.00;;;;;;5040742;28;20090;-63
2021/05/15 12:29:39;;;;;;;28.23;6.28;;;22.60;31.90;;;;;;5036504;28;20085;-63
2021/05/15 12:32:07;;;;;;;25.25;5.28;;;22.60;31.90;;;;;;5040365;28;20065;-63
2021/05/15 12:34:33;;;;;;;24.13;5.10;;;22.60;31.50;;;;;;5038744;28;20084;-64
2021/05/15 12:37:00;;;;;;;23.85;5.22;;;22.50;31.60;;;;;;5039648;28;20105;-65
2021/05/15 12:39:34;;;;;;;27.42;5.55;;;22.40;31.70;;;;;;5034077;28;20070;-61
2021/05/15 12:42:02;;;;;;;25.25;6.53;;;22.40;31.70;;;;;;5037754;28;20086;-64
2021/05/15 12:44:42;;;;;;;29.27;5.72;;;22.20;32.00;;;;;;5037795;28;20557;-62
2021/05/15 12:47:09;;;;;;;42.97;6.63;;;22.20;32.40;;;;;;5038002;28;20158;-63